sensor_id;sensor_type;location;lat;lon;timestamp;pressure;altitude;pressure_sealevel;temperature;humidity
70437;BME280;57877;39.750;-104.894;2023-03-22T00:02:17;82664.53;;;15.57;10.80
70437;BME280;57877;39.750;-104.894;2023-03-22T00:04:43;82670.12;;;16.91;10.11
70437;BME280;57877;39.750;-104.894;2023-03-22T00:07:09;82672.59;;;16.83;9.73
70437;BME280;57877;39.750;-104.894;2023-03-22T00:09:34;82670.35;;;17.18;9.66
70437;BME280;57877;39.750;-104.894;2023-03-22T00:12:01;82667.77;;;16.87;9.70
70437;BME280;57877;39.750;-104.894;2023-03-22T00:14:26;82666.63;;;16.83;9.71
70437;BME280;57877;39.750;-104.894;2023-03-22T00:16:52;82671.45;;;16.78;9.81
70437;BME280;57877;39.750;-104.894;2023-03-22T00:19:18;82681.65;;;16.40;9.91
70437;BME280;57877;39.750;-104.894;2023-03-22T00:21:44;82688.18;;;16.63;9.87
70437;BME280;57877;39.750;-104.894;2023-03-22T00:24:11;82691.98;;;15.59;10.34
70437;BME280;57877;39.750;-104.894;2023-03-22T00:26:36;82694.92;;;14.71;9.95
70437;BME280;57877;39.750;-104.894;2023-03-22T00:29:02;82701.70;;;15.29;9.40
70437;BME280;57877;39.750;-104.894;2023-03-22T00:31:28;82703.66;;;14.96;8.99
70437;BME280;57877;39.750;-104.894;2023-03-22T00:33:54;82712.17;;;13.91;9.63
70437;BME280;57877;39.750;-104.894;2023-03-22T00:36:20;82714.12;;;13.47;9.90
70437;BME280;57877;39.750;-104.894;2023-03-22T00:38:46;82710.93;;;11.67;10.74
70437;BME280;57877;39.750;-104.894;2023-03-22T00:41:14;82708.90;;;12.04;10.84
70437;BME280;57877;39.750;-104.894;2023-03-22T00:43:38;82709.16;;;11.20;11.07
70437;BME280;57877;39.750;-104.894;2023-03-22T00:46:04;82716.77;;;10.74;11.45
70437;BME280;57877;39.750;-104.894;2023-03-22T00:48:30;82720.98;;;11.18;11.30
70437;BME280;57877;39.750;-104.894;2023-03-22T00:50:56;82724.61;;;11.40;11.35
70437;BME280;57877;39.750;-104.894;2023-03-22T00:53:22;82728.37;;;11.09;11.22
70437;BME280;57877;39.750;-104.894;2023-03-22T00:55:48;82735.14;;;11.44;10.88
70437;BME280;57877;39.750;-104.894;2023-03-22T00:58:14;82745.98;;;11.87;10.64
70437;BME280;57877;39.750;-104.894;2023-03-22T01:00:40;82752.26;;;11.28;11.17
70437;BME280;57877;39.750;-104.894;2023-03-22T01:03:06;82755.28;;;12.07;10.90
70437;BME280;57877;39.750;-104.894;2023-03-22T01:05:32;82766.76;;;11.70;11.09
70437;BME280;57877;39.750;-104.894;2023-03-22T01:07:59;82773.22;;;11.34;11.38
70437;BME280;57877;39.750;-104.894;2023-03-22T01:10:23;82778.44;;;12.05;10.95
70437;BME280;57877;39.750;-104.894;2023-03-22T01:12:49;82784.30;;;12.57;11.08
70437;BME280;57877;39.750;-104.894;2023-03-22T01:15:16;82785.77;;;11.46;12.30
70437;BME280;57877;39.750;-104.894;2023-03-22T01:17:41;82787.86;;;11.07;12.70
70437;BME280;57877;39.750;-104.894;2023-03-22T01:20:09;82796.57;;;11.11;13.23
70437;BME280;57877;39.750;-104.894;2023-03-22T01:22:34;82793.48;;;10.64;13.47
70437;BME280;57877;39.750;-104.894;2023-03-22T01:24:59;82792.57;;;10.47;13.69
70437;BME280;57877;39.750;-104.894;2023-03-22T01:27:25;82788.80;;;10.40;13.74
70437;BME280;57877;39.750;-104.894;2023-03-22T01:29:51;82787.36;;;10.26;13.84
70437;BME280;57877;39.750;-104.894;2023-03-22T01:32:17;82791.49;;;10.12;13.64
70437;BME280;57877;39.750;-104.894;2023-03-22T01:34:43;82799.83;;;10.04;13.64
70437;BME280;57877;39.750;-104.894;2023-03-22T01:37:09;82794.12;;;10.26;13.62
70437;BME280;57877;39.750;-104.894;2023-03-22T01:39:35;82794.41;;;10.12;13.86
70437;BME280;57877;39.750;-104.894;2023-03-22T01:42:02;82798.89;;;9.98;13.99
70437;BME280;57877;39.750;-104.894;2023-03-22T01:44:29;82806.30;;;10.73;13.33
70437;BME280;57877;39.750;-104.894;2023-03-22T01:46:53;82803.02;;;10.22;13.71
70437;BME280;57877;39.750;-104.894;2023-03-22T01:49:22;82797.67;;;9.97;13.96
70437;BME280;57877;39.750;-104.894;2023-03-22T01:51:47;82796.34;;;9.69;14.01
70437;BME280;57877;39.750;-104.894;2023-03-22T01:54:15;82789.07;;;9.46;14.22
70437;BME280;57877;39.750;-104.894;2023-03-22T01:56:39;82792.84;;;9.73;14.01
70437;BME280;57877;39.750;-104.894;2023-03-22T01:59:04;82794.82;;;10.17;13.68
70437;BME280;57877;39.750;-104.894;2023-03-22T02:01:30;82791.04;;;9.39;14.24
70437;BME280;57877;39.750;-104.894;2023-03-22T02:03:58;82782.46;;;8.72;14.83
70437;BME280;57877;39.750;-104.894;2023-03-22T02:06:21;82781.42;;;8.90;15.04
70437;BME280;57877;39.750;-104.894;2023-03-22T02:08:47;82786.21;;;8.68;15.38
70437;BME280;57877;39.750;-104.894;2023-03-22T02:11:15;82797.19;;;9.10;15.05
70437;BME280;57877;39.750;-104.894;2023-03-22T02:13:47;82804.66;;;9.04;14.80
70437;BME280;57877;39.750;-104.894;2023-03-22T02:16:14;82803.11;;;8.53;15.18
70437;BME280;57877;39.750;-104.894;2023-03-22T02:18:41;82804.39;;;9.25;14.57
70437;BME280;57877;39.750;-104.894;2023-03-22T02:28:22;82843.18;;;10.34;13.61
70437;BME280;57877;39.750;-104.894;2023-03-22T02:33:16;82843.18;;;10.55;13.54
70437;BME280;57877;39.750;-104.894;2023-03-22T02:35:40;82854.47;;;9.57;14.54
70437;BME280;57877;39.750;-104.894;2023-03-22T02:40:29;82848.22;;;8.56;16.39
70437;BME280;57877;39.750;-104.894;2023-03-22T02:42:59;82833.51;;;7.96;17.05
70437;BME280;57877;39.750;-104.894;2023-03-22T02:45:20;82829.36;;;7.95;17.12
70437;BME280;57877;39.750;-104.894;2023-03-22T02:47:50;82844.54;;;8.03;17.46
70437;BME280;57877;39.750;-104.894;2023-03-22T02:50:13;82851.62;;;8.41;17.19
70437;BME280;57877;39.750;-104.894;2023-03-22T02:52:39;82849.26;;;8.32;16.97
70437;BME280;57877;39.750;-104.894;2023-03-22T02:55:05;82849.80;;;8.44;16.35
70437;BME280;57877;39.750;-104.894;2023-03-22T02:57:32;82854.62;;;8.55;16.03
70437;BME280;57877;39.750;-104.894;2023-03-22T02:59:52;82849.16;;;8.03;15.80
70437;BME280;57877;39.750;-104.894;2023-03-22T03:02:19;82844.75;;;8.61;15.47
70437;BME280;57877;39.750;-104.894;2023-03-22T03:04:46;82839.07;;;8.24;15.13
70437;BME280;57877;39.750;-104.894;2023-03-22T03:07:12;82837.32;;;9.25;14.38
70437;BME280;57877;39.750;-104.894;2023-03-22T03:09:37;82837.70;;;8.88;14.43
70437;BME280;57877;39.750;-104.894;2023-03-22T03:12:02;82847.47;;;9.33;14.14
70437;BME280;57877;39.750;-104.894;2023-03-22T03:14:29;82854.02;;;9.44;14.06
70437;BME280;57877;39.750;-104.894;2023-03-22T03:17:05;82866.64;;;9.29;14.19
70437;BME280;57877;39.750;-104.894;2023-03-22T03:19:26;82875.47;;;9.28;14.22
70437;BME280;57877;39.750;-104.894;2023-03-22T03:21:52;82874.88;;;9.23;14.35
70437;BME280;57877;39.750;-104.894;2023-03-22T03:24:19;82867.03;;;8.99;14.31
70437;BME280;57877;39.750;-104.894;2023-03-22T03:26:44;82859.70;;;9.18;14.52
70437;BME280;57877;39.750;-104.894;2023-03-22T03:29:07;82865.79;;;8.97;14.72
70437;BME280;57877;39.750;-104.894;2023-03-22T03:31:35;82863.18;;;9.38;14.59
70437;BME280;57877;39.750;-104.894;2023-03-22T03:34:04;82866.76;;;9.45;14.65
70437;BME280;57877;39.750;-104.894;2023-03-22T03:36:22;82872.87;;;8.98;14.81
70437;BME280;57877;39.750;-104.894;2023-03-22T03:38:49;82868.65;;;9.36;15.06
70437;BME280;57877;39.750;-104.894;2023-03-22T03:41:16;82868.31;;;9.00;15.53
70437;BME280;57877;39.750;-104.894;2023-03-22T03:43:40;82856.30;;;8.78;15.78
70437;BME280;57877;39.750;-104.894;2023-03-22T03:46:07;82842.51;;;8.19;16.73
70437;BME280;57877;39.750;-104.894;2023-03-22T03:48:33;82850.93;;;8.55;16.74
70437;BME280;57877;39.750;-104.894;2023-03-22T03:50:59;82857.98;;;8.90;16.54
70437;BME280;57877;39.750;-104.894;2023-03-22T03:53:24;82865.77;;;8.79;16.78
70437;BME280;57877;39.750;-104.894;2023-03-22T03:55:49;82871.82;;;9.01;16.83
70437;BME280;57877;39.750;-104.894;2023-03-22T03:58:15;82883.38;;;8.98;16.72
70437;BME280;57877;39.750;-104.894;2023-03-22T04:00:41;82886.08;;;9.24;16.68
70437;BME280;57877;39.750;-104.894;2023-03-22T04:03:08;82874.80;;;9.26;16.52
70437;BME280;57877;39.750;-104.894;2023-03-22T04:05:33;82862.75;;;9.61;16.34
70437;BME280;57877;39.750;-104.894;2023-03-22T04:07:59;82854.52;;;9.49;16.56
70437;BME280;57877;39.750;-104.894;2023-03-22T04:10:25;82865.14;;;9.41;16.50
70437;BME280;57877;39.750;-104.894;2023-03-22T04:12:51;82867.98;;;8.65;17.11
70437;BME280;57877;39.750;-104.894;2023-03-22T04:15:17;82869.32;;;7.11;18.78
70437;BME280;57877;39.750;-104.894;2023-03-22T04:17:43;82876.63;;;7.73;18.35
70437;BME280;57877;39.750;-104.894;2023-03-22T04:20:11;82886.60;;;8.81;17.15
70437;BME280;57877;39.750;-104.894;2023-03-22T04:22:35;82882.01;;;8.98;16.22
70437;BME280;57877;39.750;-104.894;2023-03-22T04:25:01;82884.62;;;7.80;17.46
70437;BME280;57877;39.750;-104.894;2023-03-22T04:27:27;82908.70;;;7.30;18.19
70437;BME280;57877;39.750;-104.894;2023-03-22T04:29:53;82925.10;;;8.62;16.43
70437;BME280;57877;39.750;-104.894;2023-03-22T04:32:18;82928.47;;;7.78;16.91
70437;BME280;57877;39.750;-104.894;2023-03-22T04:34:44;82941.86;;;7.68;17.16
70437;BME280;57877;39.750;-104.894;2023-03-22T04:37:10;82948.99;;;6.84;16.70
70437;BME280;57877;39.750;-104.894;2023-03-22T04:39:36;82947.52;;;8.37;16.42
70437;BME280;57877;39.750;-104.894;2023-03-22T04:42:02;82941.80;;;7.95;16.33
70437;BME280;57877;39.750;-104.894;2023-03-22T04:44:28;82935.81;;;7.10;17.07
70437;BME280;57877;39.750;-104.894;2023-03-22T04:46:54;82936.49;;;6.92;17.54
70437;BME280;57877;39.750;-104.894;2023-03-22T04:49:19;82936.90;;;8.64;16.07
70437;BME280;57877;39.750;-104.894;2023-03-22T04:51:45;82930.40;;;7.34;17.11
70437;BME280;57877;39.750;-104.894;2023-03-22T04:54:11;82920.86;;;6.63;17.62
70437;BME280;57877;39.750;-104.894;2023-03-22T04:56:36;82923.22;;;6.72;17.66
70437;BME280;57877;39.750;-104.894;2023-03-22T04:59:02;82921.48;;;7.58;17.01
70437;BME280;57877;39.750;-104.894;2023-03-22T05:01:28;82910.41;;;8.84;15.89
70437;BME280;57877;39.750;-104.894;2023-03-22T05:03:53;82905.39;;;9.08;15.75
70437;BME280;57877;39.750;-104.894;2023-03-22T05:06:19;82903.73;;;8.89;15.59
70437;BME280;57877;39.750;-104.894;2023-03-22T05:08:45;82903.55;;;8.15;16.07
70437;BME280;57877;39.750;-104.894;2023-03-22T05:11:13;82896.34;;;9.40;15.50
70437;BME280;57877;39.750;-104.894;2023-03-22T05:13:37;82898.67;;;9.26;15.38
70437;BME280;57877;39.750;-104.894;2023-03-22T05:16:00;82906.39;;;8.24;16.41
70437;BME280;57877;39.750;-104.894;2023-03-22T05:18:26;82924.06;;;6.88;17.64
70437;BME280;57877;39.750;-104.894;2023-03-22T05:20:51;82931.81;;;7.88;16.91
70437;BME280;57877;39.750;-104.894;2023-03-22T05:23:16;82925.65;;;8.40;16.72
70437;BME280;57877;39.750;-104.894;2023-03-22T05:25:40;82934.31;;;7.36;17.94
70437;BME280;57877;39.750;-104.894;2023-03-22T05:28:06;82943.54;;;6.98;18.35
70437;BME280;57877;39.750;-104.894;2023-03-22T05:30:31;82945.18;;;7.06;18.09
70437;BME280;57877;39.750;-104.894;2023-03-22T05:33:00;82939.60;;;7.29;17.98
70437;BME280;57877;39.750;-104.894;2023-03-22T05:35:21;82929.93;;;8.75;16.75
70437;BME280;57877;39.750;-104.894;2023-03-22T05:37:46;82920.14;;;8.88;16.66
70437;BME280;57877;39.750;-104.894;2023-03-22T05:40:12;82910.92;;;9.02;16.84
70437;BME280;57877;39.750;-104.894;2023-03-22T05:42:37;82909.70;;;8.81;17.02
70437;BME280;57877;39.750;-104.894;2023-03-22T05:45:02;82913.99;;;8.63;17.13
70437;BME280;57877;39.750;-104.894;2023-03-22T05:47:27;82920.27;;;8.06;17.95
70437;BME280;57877;39.750;-104.894;2023-03-22T05:49:52;82938.46;;;8.34;17.38
70437;BME280;57877;39.750;-104.894;2023-03-22T05:52:17;82941.58;;;9.02;17.32
70437;BME280;57877;39.750;-104.894;2023-03-22T05:54:42;82957.90;;;8.75;16.90
70437;BME280;57877;39.750;-104.894;2023-03-22T05:57:07;82942.56;;;8.61;17.28
70437;BME280;57877;39.750;-104.894;2023-03-22T05:59:33;82942.99;;;8.37;17.98
70437;BME280;57877;39.750;-104.894;2023-03-22T06:01:58;82971.42;;;7.05;18.88
70437;BME280;57877;39.750;-104.894;2023-03-22T06:04:23;82955.32;;;7.79;18.15
70437;BME280;57877;39.750;-104.894;2023-03-22T06:06:49;82959.97;;;8.07;17.98
70437;BME280;57877;39.750;-104.894;2023-03-22T06:09:15;82984.06;;;5.91;20.15
70437;BME280;57877;39.750;-104.894;2023-03-22T06:11:41;82950.12;;;7.41;19.27
70437;BME280;57877;39.750;-104.894;2023-03-22T06:14:06;82930.35;;;7.19;19.50
70437;BME280;57877;39.750;-104.894;2023-03-22T06:16:32;82933.09;;;7.48;19.10
70437;BME280;57877;39.750;-104.894;2023-03-22T06:18:58;82942.36;;;7.42;19.00
70437;BME280;57877;39.750;-104.894;2023-03-22T06:21:24;82954.12;;;7.23;19.16
70437;BME280;57877;39.750;-104.894;2023-03-22T06:23:50;82967.85;;;7.75;18.69
70437;BME280;57877;39.750;-104.894;2023-03-22T06:26:15;82968.48;;;6.56;19.31
70437;BME280;57877;39.750;-104.894;2023-03-22T06:28:40;82974.09;;;7.16;18.58
70437;BME280;57877;39.750;-104.894;2023-03-22T06:31:07;82988.48;;;7.51;18.44
70437;BME280;57877;39.750;-104.894;2023-03-22T06:33:30;82998.76;;;6.76;19.27
70437;BME280;57877;39.750;-104.894;2023-03-22T06:35:55;82994.24;;;6.82;19.97
70437;BME280;57877;39.750;-104.894;2023-03-22T06:38:20;82992.85;;;6.84;20.24
70437;BME280;57877;39.750;-104.894;2023-03-22T06:40:46;82992.93;;;5.90;21.33
70437;BME280;57877;39.750;-104.894;2023-03-22T06:43:11;82991.19;;;5.89;21.81
70437;BME280;57877;39.750;-104.894;2023-03-22T06:45:37;82989.00;;;6.03;21.31
70437;BME280;57877;39.750;-104.894;2023-03-22T06:48:02;82977.63;;;5.81;21.77
70437;BME280;57877;39.750;-104.894;2023-03-22T06:50:28;82978.75;;;4.84;23.25
70437;BME280;57877;39.750;-104.894;2023-03-22T06:52:54;82991.11;;;5.02;23.02
70437;BME280;57877;39.750;-104.894;2023-03-22T06:55:20;82991.05;;;5.31;22.94
70437;BME280;57877;39.750;-104.894;2023-03-22T06:57:46;82988.09;;;5.23;23.02
70437;BME280;57877;39.750;-104.894;2023-03-22T07:00:14;82994.62;;;5.29;23.02
70437;BME280;57877;39.750;-104.894;2023-03-22T07:02:37;83000.81;;;5.00;22.89
70437;BME280;57877;39.750;-104.894;2023-03-22T07:05:04;82998.10;;;5.05;22.70
70437;BME280;57877;39.750;-104.894;2023-03-22T07:07:29;83003.25;;;4.39;23.03
70437;BME280;57877;39.750;-104.894;2023-03-22T07:09:55;83006.53;;;4.54;23.36
70437;BME280;57877;39.750;-104.894;2023-03-22T07:12:20;83006.31;;;4.70;23.23
70437;BME280;57877;39.750;-104.894;2023-03-22T07:14:45;83002.69;;;5.01;22.83
70437;BME280;57877;39.750;-104.894;2023-03-22T07:17:10;83001.02;;;3.57;24.52
70437;BME280;57877;39.750;-104.894;2023-03-22T07:19:36;82993.11;;;4.70;23.54
70437;BME280;57877;39.750;-104.894;2023-03-22T07:22:01;82995.75;;;4.28;23.47
70437;BME280;57877;39.750;-104.894;2023-03-22T07:24:26;83003.51;;;4.95;23.03
70437;BME280;57877;39.750;-104.894;2023-03-22T07:26:53;83001.94;;;4.98;23.04
70437;BME280;57877;39.750;-104.894;2023-03-22T07:29:18;83004.60;;;4.22;23.41
70437;BME280;57877;39.750;-104.894;2023-03-22T07:31:44;83004.03;;;4.53;23.05
70437;BME280;57877;39.750;-104.894;2023-03-22T07:34:09;83002.59;;;4.04;23.60
70437;BME280;57877;39.750;-104.894;2023-03-22T07:36:35;82994.05;;;3.86;23.28
70437;BME280;57877;39.750;-104.894;2023-03-22T07:39:01;82987.29;;;4.54;22.78
70437;BME280;57877;39.750;-104.894;2023-03-22T07:41:27;82994.64;;;4.63;22.68
70437;BME280;57877;39.750;-104.894;2023-03-22T07:43:52;82988.06;;;5.11;22.73
70437;BME280;57877;39.750;-104.894;2023-03-22T07:46:22;83003.26;;;4.49;23.17
70437;BME280;57877;39.750;-104.894;2023-03-22T07:48:43;83006.86;;;3.53;24.53
70437;BME280;57877;39.750;-104.894;2023-03-22T07:51:08;83013.67;;;5.10;22.09
70437;BME280;57877;39.750;-104.894;2023-03-22T07:53:33;83021.70;;;3.80;23.71
70437;BME280;57877;39.750;-104.894;2023-03-22T07:55:58;83024.28;;;2.87;24.43
70437;BME280;57877;39.750;-104.894;2023-03-22T07:58:26;83020.55;;;4.86;22.42
70437;BME280;57877;39.750;-104.894;2023-03-22T08:00:50;83024.23;;;4.92;22.24
70437;BME280;57877;39.750;-104.894;2023-03-22T08:03:16;83029.36;;;5.20;22.07
70437;BME280;57877;39.750;-104.894;2023-03-22T08:05:42;83034.40;;;3.72;23.75
70437;BME280;57877;39.750;-104.894;2023-03-22T08:08:07;83037.92;;;4.88;22.19
70437;BME280;57877;39.750;-104.894;2023-03-22T08:10:32;83030.55;;;4.36;23.15
70437;BME280;57877;39.750;-104.894;2023-03-22T08:12:57;83031.77;;;3.17;24.24
70437;BME280;57877;39.750;-104.894;2023-03-22T08:15:23;83021.03;;;3.58;23.69
70437;BME280;57877;39.750;-104.894;2023-03-22T08:17:48;83018.87;;;1.78;26.07
70437;BME280;57877;39.750;-104.894;2023-03-22T08:20:14;83017.67;;;1.71;26.50
70437;BME280;57877;39.750;-104.894;2023-03-22T08:22:40;83021.87;;;1.35;26.88
70437;BME280;57877;39.750;-104.894;2023-03-22T08:25:06;83040.95;;;2.41;25.93
70437;BME280;57877;39.750;-104.894;2023-03-22T08:27:31;83042.17;;;1.95;26.56
70437;BME280;57877;39.750;-104.894;2023-03-22T08:29:56;83029.59;;;3.19;24.57
70437;BME280;57877;39.750;-104.894;2023-03-22T08:32:21;83029.49;;;2.20;25.17
70437;BME280;57877;39.750;-104.894;2023-03-22T08:34:47;83031.47;;;3.94;23.14
70437;BME280;57877;39.750;-104.894;2023-03-22T08:37:13;83030.71;;;1.49;25.52
70437;BME280;57877;39.750;-104.894;2023-03-22T08:39:38;83025.13;;;2.82;24.59
70437;BME280;57877;39.750;-104.894;2023-03-22T08:42:03;83020.61;;;1.72;25.43
70437;BME280;57877;39.750;-104.894;2023-03-22T08:44:28;83018.98;;;0.54;26.74
70437;BME280;57877;39.750;-104.894;2023-03-22T08:46:54;83026.63;;;1.68;25.94
70437;BME280;57877;39.750;-104.894;2023-03-22T08:49:21;83030.45;;;1.59;25.63
70437;BME280;57877;39.750;-104.894;2023-03-22T08:51:46;83026.11;;;2.45;24.89
70437;BME280;57877;39.750;-104.894;2023-03-22T08:54:11;83015.76;;;2.04;25.02
70437;BME280;57877;39.750;-104.894;2023-03-22T08:56:36;83012.47;;;1.80;25.29
70437;BME280;57877;39.750;-104.894;2023-03-22T08:59:01;83004.35;;;3.05;23.87
70437;BME280;57877;39.750;-104.894;2023-03-22T09:01:26;82997.30;;;2.00;24.63
70437;BME280;57877;39.750;-104.894;2023-03-22T09:03:51;82993.78;;;1.65;24.91
70437;BME280;57877;39.750;-104.894;2023-03-22T09:06:16;82993.53;;;0.55;27.07
70437;BME280;57877;39.750;-104.894;2023-03-22T09:08:42;82985.85;;;1.16;26.42
70437;BME280;57877;39.750;-104.894;2023-03-22T09:11:08;82972.71;;;2.96;23.80
70437;BME280;57877;39.750;-104.894;2023-03-22T09:13:31;82981.37;;;3.21;22.88
70437;BME280;57877;39.750;-104.894;2023-03-22T09:15:57;82990.22;;;2.99;23.20
70437;BME280;57877;39.750;-104.894;2023-03-22T09:18:22;82986.18;;;1.36;25.44
70437;BME280;57877;39.750;-104.894;2023-03-22T09:20:47;82969.80;;;3.35;22.72
70437;BME280;57877;39.750;-104.894;2023-03-22T09:23:12;82964.97;;;3.07;23.02
70437;BME280;57877;39.750;-104.894;2023-03-22T09:25:37;82974.28;;;3.18;22.55
70437;BME280;57877;39.750;-104.894;2023-03-22T09:28:02;82983.31;;;1.07;24.79
70437;BME280;57877;39.750;-104.894;2023-03-22T09:30:27;82988.34;;;1.20;24.74
70437;BME280;57877;39.750;-104.894;2023-03-22T09:32:53;82971.15;;;1.96;24.69
70437;BME280;57877;39.750;-104.894;2023-03-22T09:35:18;82973.66;;;0.78;25.47
70437;BME280;57877;39.750;-104.894;2023-03-22T09:37:43;82970.96;;;3.16;22.96
70437;BME280;57877;39.750;-104.894;2023-03-22T09:40:11;82962.94;;;2.94;23.11
70437;BME280;57877;39.750;-104.894;2023-03-22T09:42:37;82945.85;;;1.93;23.84
70437;BME280;57877;39.750;-104.894;2023-03-22T09:45:02;82938.10;;;2.55;23.52
70437;BME280;57877;39.750;-104.894;2023-03-22T09:47:32;82938.58;;;2.53;23.27
70437;BME280;57877;39.750;-104.894;2023-03-22T09:49:55;82934.22;;;3.32;22.38
70437;BME280;57877;39.750;-104.894;2023-03-22T09:52:16;82931.74;;;2.00;23.88
70437;BME280;57877;39.750;-104.894;2023-03-22T09:54:42;82938.68;;;2.00;24.33
70437;BME280;57877;39.750;-104.894;2023-03-22T09:57:12;82941.09;;;2.78;22.90
70437;BME280;57877;39.750;-104.894;2023-03-22T09:59:37;82949.51;;;1.29;24.74
70437;BME280;57877;39.750;-104.894;2023-03-22T10:01:58;82956.86;;;2.89;23.45
70437;BME280;57877;39.750;-104.894;2023-03-22T10:04:30;82961.19;;;3.10;22.74
70437;BME280;57877;39.750;-104.894;2023-03-22T10:06:48;82965.97;;;3.49;22.02
70437;BME280;57877;39.750;-104.894;2023-03-22T10:09:15;82961.15;;;3.59;21.83
70437;BME280;57877;39.750;-104.894;2023-03-22T10:11:42;82953.67;;;2.53;22.87
70437;BME280;57877;39.750;-104.894;2023-03-22T10:14:09;82945.14;;;1.85;24.03
70437;BME280;57877;39.750;-104.894;2023-03-22T10:16:29;82938.39;;;1.71;24.20
70437;BME280;57877;39.750;-104.894;2023-03-22T10:18:59;82934.84;;;2.05;24.22
70437;BME280;57877;39.750;-104.894;2023-03-22T10:21:18;82949.08;;;0.92;25.66
70437;BME280;57877;39.750;-104.894;2023-03-22T10:23:46;82960.97;;;0.60;25.62
70437;BME280;57877;39.750;-104.894;2023-03-22T10:26:11;82953.96;;;2.94;23.09
70437;BME280;57877;39.750;-104.894;2023-03-22T10:28:38;82952.20;;;3.34;22.46
70437;BME280;57877;39.750;-104.894;2023-03-22T10:30:59;82963.37;;;2.89;22.41
70437;BME280;57877;39.750;-104.894;2023-03-22T10:33:34;82951.13;;;3.39;22.09
70437;BME280;57877;39.750;-104.894;2023-03-22T10:35:51;82950.91;;;3.07;22.26
70437;BME280;57877;39.750;-104.894;2023-03-22T10:38:19;82953.90;;;3.35;22.28
70437;BME280;57877;39.750;-104.894;2023-03-22T10:40:40;82957.26;;;3.38;21.97
70437;BME280;57877;39.750;-104.894;2023-03-22T10:43:12;82959.86;;;3.29;21.99
70437;BME280;57877;39.750;-104.894;2023-03-22T10:45:33;82962.99;;;3.34;21.91
70437;BME280;57877;39.750;-104.894;2023-03-22T10:48:01;82969.81;;;3.07;22.35
70437;BME280;57877;39.750;-104.894;2023-03-22T10:50:27;82968.60;;;3.19;22.04
70437;BME280;57877;39.750;-104.894;2023-03-22T10:52:51;82961.94;;;3.40;21.84
70437;BME280;57877;39.750;-104.894;2023-03-22T10:55:14;82955.32;;;3.54;22.09
70437;BME280;57877;39.750;-104.894;2023-03-22T10:57:39;82956.75;;;3.60;22.03
70437;BME280;57877;39.750;-104.894;2023-03-22T11:00:06;82960.62;;;2.11;23.65
70437;BME280;57877;39.750;-104.894;2023-03-22T11:02:31;82958.53;;;2.52;23.21
70437;BME280;57877;39.750;-104.894;2023-03-22T11:04:58;82960.87;;;2.58;23.36
70437;BME280;57877;39.750;-104.894;2023-03-22T11:07:28;82962.77;;;3.01;22.58
70437;BME280;57877;39.750;-104.894;2023-03-22T11:09:47;82964.36;;;2.98;22.57
70437;BME280;57877;39.750;-104.894;2023-03-22T11:12:15;82956.03;;;2.76;22.84
70437;BME280;57877;39.750;-104.894;2023-03-22T11:14:42;82956.88;;;3.21;22.95
70437;BME280;57877;39.750;-104.894;2023-03-22T11:17:10;82958.65;;;2.61;23.58
70437;BME280;57877;39.750;-104.894;2023-03-22T11:19:32;82958.60;;;2.57;23.53
70437;BME280;57877;39.750;-104.894;2023-03-22T11:21:54;82966.98;;;2.80;23.38
70437;BME280;57877;39.750;-104.894;2023-03-22T11:24:18;82983.36;;;2.77;23.43
70437;BME280;57877;39.750;-104.894;2023-03-22T11:29:16;82957.01;;;1.84;24.39
70437;BME280;57877;39.750;-104.894;2023-03-22T11:34:00;82942.32;;;2.46;24.01
70437;BME280;57877;39.750;-104.894;2023-03-22T11:36:27;82934.70;;;2.23;24.11
70437;BME280;57877;39.750;-104.894;2023-03-22T11:38:56;82944.16;;;2.39;23.74
70437;BME280;57877;39.750;-104.894;2023-03-22T11:41:22;82941.09;;;1.97;24.54
70437;BME280;57877;39.750;-104.894;2023-03-22T11:43:45;82944.17;;;0.87;25.94
70437;BME280;57877;39.750;-104.894;2023-03-22T11:46:08;82907.21;;;2.04;24.67
70437;BME280;57877;39.750;-104.894;2023-03-22T11:48:32;82919.73;;;2.32;24.01
70437;BME280;57877;39.750;-104.894;2023-03-22T11:51:04;82918.21;;;2.56;23.89
70437;BME280;57877;39.750;-104.894;2023-03-22T11:53:23;82910.94;;;2.58;23.45
70437;BME280;57877;39.750;-104.894;2023-03-22T11:55:48;82918.09;;;2.83;23.41
70437;BME280;57877;39.750;-104.894;2023-03-22T12:00:37;82902.45;;;2.71;23.86
70437;BME280;57877;39.750;-104.894;2023-03-22T12:03:04;82894.27;;;2.12;24.49
70437;BME280;57877;39.750;-104.894;2023-03-22T12:05:29;82902.40;;;2.44;24.03
70437;BME280;57877;39.750;-104.894;2023-03-22T12:07:57;82904.65;;;2.13;24.41
70437;BME280;57877;39.750;-104.894;2023-03-22T12:10:24;82918.42;;;2.00;24.35
70437;BME280;57877;39.750;-104.894;2023-03-22T12:12:47;82899.90;;;2.51;23.95
70437;BME280;57877;39.750;-104.894;2023-03-22T12:15:14;82905.66;;;2.25;24.36
70437;BME280;57877;39.750;-104.894;2023-03-22T12:17:37;82895.16;;;2.09;24.63
70437;BME280;57877;39.750;-104.894;2023-03-22T12:20:03;82889.41;;;1.95;24.58
70437;BME280;57877;39.750;-104.894;2023-03-22T12:22:27;82886.40;;;2.20;24.16
70437;BME280;57877;39.750;-104.894;2023-03-22T12:24:48;82896.23;;;1.23;25.57
70437;BME280;57877;39.750;-104.894;2023-03-22T12:27:17;82897.23;;;0.01;27.10
70437;BME280;57877;39.750;-104.894;2023-03-22T12:29:40;82902.47;;;1.84;24.74
70437;BME280;57877;39.750;-104.894;2023-03-22T12:32:06;82915.04;;;0.97;26.13
70437;BME280;57877;39.750;-104.894;2023-03-22T12:34:35;82904.02;;;2.03;24.68
70437;BME280;57877;39.750;-104.894;2023-03-22T12:36:55;82907.51;;;1.24;26.46
70437;BME280;57877;39.750;-104.894;2023-03-22T12:39:22;82907.32;;;1.84;24.66
70437;BME280;57877;39.750;-104.894;2023-03-22T12:41:46;82907.56;;;1.72;25.25
70437;BME280;57877;39.750;-104.894;2023-03-22T12:44:14;82912.30;;;0.21;27.32
70437;BME280;57877;39.750;-104.894;2023-03-22T12:46:37;82898.58;;;1.93;26.08
70437;BME280;57877;39.750;-104.894;2023-03-22T12:49:04;82882.44;;;1.56;25.98